Time,TemperatureF,DewpointF,PressureIn,WindDirection,WindDirectionDegrees,WindSpeedMPH,WindSpeedGustMPH,Humidity,HourlyPrecipIn,Conditions,Clouds,dailyrainin,SoftwareType,DateUTC
2013-03-22 00:02:00,19.8,10.6,23.98,NW,315,15.0,23.0,67,0.00,,,0.00,meteohub,2013-03-22 06:02:00,
2013-03-22 00:07:00,19.8,10.6,23.98,NW,315,15.0,20.0,67,0.00,,,0.00,meteohub,2013-03-22 06:07:00,
2013-03-22 00:12:00,19.8,10.6,23.98,NW,315,19.0,20.0,67,0.00,,,0.00,meteohub,2013-03-22 06:12:00,
2013-03-22 00:17:00,19.9,10.4,23.98,NW,315,20.0,21.0,66,0.00,,,0.00,meteohub,2013-03-22 06:17:00,
2013-03-22 00:27:00,19.9,10.4,23.98,NW,315,20.0,22.0,66,0.00,,,0.00,meteohub,2013-03-22 06:27:00,
2013-03-22 00:32:00,20.1,10.2,23.98,West,270,21.0,22.0,65,0.00,,,0.00,meteohub,2013-03-22 06:32:00,
2013-03-22 00:37:00,20.5,9.9,23.97,NW,315,22.0,23.0,63,0.00,,,0.00,meteohub,2013-03-22 06:37:00,
2013-03-22 00:42:00,20.1,10.2,23.97,West,270,21.0,27.0,65,0.00,,,0.00,meteohub,2013-03-22 06:42:00,
2013-03-22 00:52:00,19.9,10.8,23.97,NW,315,22.0,27.0,67,0.00,,,0.00,meteohub,2013-03-22 06:52:00,
2013-03-22 00:57:00,19.9,10.8,23.97,West,270,21.0,24.0,67,0.00,,,0.00,meteohub,2013-03-22 06:57:00,
2013-03-22 01:02:00,19.9,10.4,23.98,NW,315,19.0,23.0,66,0.00,,,0.00,meteohub,2013-03-22 07:02:00,
2013-03-22 01:12:00,19.6,11.1,23.98,West,270,17.0,26.0,69,0.00,,,0.00,meteohub,2013-03-22 07:12:00,
2013-03-22 01:22:00,19.4,11.3,23.98,NW,315,23.0,26.0,70,0.00,,,0.00,meteohub,2013-03-22 07:22:00,
2013-03-22 01:27:00,18.5,13.1,23.98,NW,315,20.0,27.0,79,0.00,,,0.00,meteohub,2013-03-22 07:27:00,
2013-03-22 01:32:00,18.3,12.9,23.98,North,0,14.0,27.0,79,0.00,,,0.00,meteohub,2013-03-22 07:32:00,
2013-03-22 01:42:00,18.0,13.5,23.98,WNW,293,19.0,27.0,82,0.00,,,0.00,meteohub,2013-03-22 07:42:00,
2013-03-22 01:47:00,18.1,13.8,23.98,North,0,16.0,21.0,83,0.00,,,0.00,meteohub,2013-03-22 07:47:00,
2013-03-22 01:52:00,18.0,13.6,23.98,North,0,17.0,21.0,83,0.00,,,0.00,meteohub,2013-03-22 07:52:00,
2013-03-22 02:02:00,18.0,13.6,23.98,NW,315,20.0,20.0,83,0.00,,,0.00,meteohub,2013-03-22 08:02:00,
2013-03-22 02:12:00,17.6,13.8,23.98,NW,315,11.0,20.0,85,0.00,,,0.00,meteohub,2013-03-22 08:12:00,
2013-03-22 02:22:00,17.4,13.5,23.98,NW,315,11.0,20.0,84,0.00,,,0.00,meteohub,2013-03-22 08:22:00,
2013-03-22 02:27:00,17.4,13.1,23.98,NW,315,7.0,11.0,83,0.00,,,0.00,meteohub,2013-03-22 08:27:00,
2013-03-22 02:32:00,17.4,12.9,23.99,NW,315,10.0,11.0,82,0.00,,,0.00,meteohub,2013-03-22 08:32:00,
2013-03-22 02:37:00,17.4,12.9,23.99,NW,315,6.0,11.0,82,0.00,,,0.00,meteohub,2013-03-22 08:37:00,
2013-03-22 02:42:00,17.4,12.9,23.99,NW,315,6.0,11.0,82,0.00,,,0.00,meteohub,2013-03-22 08:42:00,
2013-03-22 02:52:00,17.6,11.8,23.98,NW,315,12.0,12.0,78,0.00,,,0.00,meteohub,2013-03-22 08:52:00,
2013-03-22 02:57:00,17.6,11.8,23.98,NW,315,11.0,14.0,78,0.00,,,0.00,meteohub,2013-03-22 08:57:00,
2013-03-22 03:02:00,17.4,11.7,23.98,NW,315,9.0,14.0,78,0.00,,,0.00,meteohub,2013-03-22 09:02:00,
2013-03-22 03:12:00,17.8,11.5,23.98,West,270,13.0,14.0,76,0.00,,,0.00,meteohub,2013-03-22 09:12:00,
2013-03-22 03:17:00,17.8,11.1,23.98,West,270,15.0,17.0,75,0.00,,,0.00,meteohub,2013-03-22 09:17:00,
2013-03-22 03:22:00,17.6,11.3,23.98,WNW,293,13.0,17.0,76,0.00,,,0.00,meteohub,2013-03-22 09:22:00,
2013-03-22 03:27:00,17.4,11.1,23.98,NW,315,12.0,17.0,76,0.00,,,0.00,meteohub,2013-03-22 09:27:00,
2013-03-22 03:32:00,17.2,11.3,23.97,NW,315,12.0,16.0,77,0.00,,,0.00,meteohub,2013-03-22 09:32:00,
2013-03-22 03:37:00,17.4,11.1,23.98,NW,315,13.0,15.0,76,0.00,,,0.00,meteohub,2013-03-22 09:37:00,
2013-03-22 03:42:00,17.2,11.3,23.97,NW,315,12.0,15.0,77,0.00,,,0.00,meteohub,2013-03-22 09:42:00,
2013-03-22 03:47:00,17.2,11.3,23.97,NW,315,12.0,15.0,77,0.00,,,0.00,meteohub,2013-03-22 09:47:00,
2013-03-22 03:52:00,17.4,11.5,23.98,NW,315,12.0,15.0,77,0.00,,,0.00,meteohub,2013-03-22 09:52:00,
2013-03-22 03:57:00,17.6,11.8,23.97,NW,315,15.0,16.0,78,0.00,,,0.00,meteohub,2013-03-22 09:57:00,
2013-03-22 04:02:00,17.4,11.7,23.98,NW,315,15.0,16.0,78,0.00,,,0.00,meteohub,2013-03-22 10:02:00,
2013-03-22 04:12:00,17.2,11.8,23.98,North,0,10.0,15.0,79,0.00,,,0.00,meteohub,2013-03-22 10:12:00,
2013-03-22 04:17:00,17.2,11.8,23.97,North,0,11.0,15.0,79,0.00,,,0.00,meteohub,2013-03-22 10:17:00,
2013-03-22 04:22:00,17.2,11.8,23.97,NW,315,15.0,15.0,79,0.00,,,0.00,meteohub,2013-03-22 10:22:00,
2013-03-22 04:27:00,17.2,11.8,23.97,NW,315,15.0,17.0,79,0.00,,,0.00,meteohub,2013-03-22 10:27:00,
2013-03-22 04:32:00,17.1,12.2,23.97,NW,315,13.0,17.0,81,0.00,,,0.00,meteohub,2013-03-22 10:32:00,
2013-03-22 04:37:00,17.1,12.6,23.97,NW,315,12.0,17.0,82,0.00,,,0.00,meteohub,2013-03-22 10:37:00,
2013-03-22 04:42:00,17.1,12.6,23.97,NW,315,11.0,16.0,82,0.00,,,0.00,meteohub,2013-03-22 10:42:00,
2013-03-22 04:47:00,17.1,12.7,23.97,North,0,13.0,16.0,83,0.00,,,0.00,meteohub,2013-03-22 10:47:00,
2013-03-22 04:52:00,17.1,12.6,23.98,NNW,338,15.0,17.0,82,0.00,,,0.00,meteohub,2013-03-22 10:52:00,
2013-03-22 04:57:00,16.5,12.7,23.97,North,0,15.0,17.0,85,0.00,,,0.00,meteohub,2013-03-22 10:57:00,
2013-03-22 05:02:00,16.3,12.9,23.97,North,0,16.0,17.0,86,0.00,,,0.00,meteohub,2013-03-22 11:02:00,
2013-03-22 05:12:00,16.3,14.4,23.97,North,0,12.0,16.0,92,0.00,,,0.00,meteohub,2013-03-22 11:12:00,
2013-03-22 05:17:00,16.2,14.2,23.97,North,0,11.0,16.0,92,0.00,,,0.00,meteohub,2013-03-22 11:17:00,
2013-03-22 05:22:00,16.0,14.4,23.97,North,0,11.0,14.0,93,0.00,,,0.00,meteohub,2013-03-22 11:22:00,
2013-03-22 05:27:00,16.0,14.5,23.97,North,0,11.0,14.0,94,0.00,,,0.00,meteohub,2013-03-22 11:27:00,
2013-03-22 05:32:00,16.2,14.7,23.98,North,0,11.0,12.0,94,0.00,,,0.00,meteohub,2013-03-22 11:32:00,
2013-03-22 05:42:00,16.5,15.1,23.98,North,0,11.0,13.0,94,0.00,,,0.00,meteohub,2013-03-22 11:42:00,
2013-03-22 05:47:00,16.5,15.1,23.98,North,0,11.0,13.0,94,0.00,,,0.00,meteohub,2013-03-22 11:47:00,
2013-03-22 05:57:00,16.3,14.9,23.98,NW,315,8.0,11.0,94,0.00,,,0.00,meteohub,2013-03-22 11:57:00,
2013-03-22 06:02:00,16.3,15.1,23.98,NW,315,9.0,11.0,95,0.00,,,0.00,meteohub,2013-03-22 12:02:00,
2013-03-22 06:07:00,16.3,15.1,23.98,NW,315,9.0,10.0,95,0.00,,,0.00,meteohub,2013-03-22 12:07:00,
2013-03-22 06:12:00,16.3,14.9,23.98,NW,315,9.0,10.0,94,0.00,,,0.00,meteohub,2013-03-22 12:12:00,
2013-03-22 06:17:00,16.3,14.9,23.98,NW,315,8.0,10.0,94,0.00,,,0.00,meteohub,2013-03-22 12:17:00,
2013-03-22 06:22:00,16.3,14.9,23.99,NW,315,8.0,10.0,94,0.00,,,0.00,meteohub,2013-03-22 12:22:00,
2013-03-22 06:27:00,16.2,14.7,23.98,NW,315,9.0,10.0,94,0.00,,,0.00,meteohub,2013-03-22 12:27:00,
2013-03-22 06:32:00,16.2,14.7,23.98,NW,315,10.0,11.0,94,0.00,,,0.00,meteohub,2013-03-22 12:32:00,
2013-03-22 06:37:00,16.2,14.7,23.98,NW,315,11.0,11.0,94,0.00,,,0.00,meteohub,2013-03-22 12:37:00,
2013-03-22 06:42:00,16.2,14.7,23.98,NW,315,11.0,13.0,94,0.00,,,0.00,meteohub,2013-03-22 12:42:00,
2013-03-22 06:47:00,16.0,14.5,23.99,NW,315,12.0,13.0,94,0.00,,,0.00,meteohub,2013-03-22 12:47:00,
2013-03-22 06:52:00,16.0,14.5,23.98,NW,315,13.0,13.0,94,0.00,,,0.00,meteohub,2013-03-22 12:52:00,
2013-03-22 06:57:00,16.0,14.5,23.98,NW,315,13.0,14.0,94,0.00,,,0.00,meteohub,2013-03-22 12:57:00,
2013-03-22 07:02:00,16.0,14.5,23.99,NW,315,14.0,14.0,94,0.00,,,0.00,meteohub,2013-03-22 13:02:00,
2013-03-22 07:12:00,16.0,14.5,23.98,NW,315,15.0,15.0,94,0.00,,,0.00,meteohub,2013-03-22 13:12:00,
2013-03-22 07:17:00,15.8,14.4,23.98,NW,315,15.0,15.0,94,0.00,,,0.00,meteohub,2013-03-22 13:17:00,
2013-03-22 07:22:00,15.8,14.4,23.98,NW,315,15.0,15.0,94,0.00,,,0.00,meteohub,2013-03-22 13:22:00,
2013-03-22 07:32:00,15.6,14.2,23.99,NW,315,16.0,17.0,94,0.00,,,0.00,meteohub,2013-03-22 13:32:00,
2013-03-22 07:37:00,15.8,14.4,23.98,NW,315,14.0,17.0,94,0.00,,,0.00,meteohub,2013-03-22 13:37:00,
2013-03-22 07:42:00,15.6,14.2,23.98,NW,315,17.0,19.0,94,0.00,,,0.00,meteohub,2013-03-22 13:42:00,
2013-03-22 07:47:00,15.6,14.2,23.99,NW,315,18.0,20.0,94,0.00,,,0.00,meteohub,2013-03-22 13:47:00,
2013-03-22 07:57:00,15.6,14.2,23.99,NW,315,20.0,21.0,94,0.00,,,0.00,meteohub,2013-03-22 13:57:00,
2013-03-22 08:02:00,15.8,14.4,23.98,NW,315,23.0,23.0,94,0.00,,,0.00,meteohub,2013-03-22 14:02:00,
2013-03-22 08:07:00,15.8,14.4,23.98,NW,315,26.0,26.0,94,0.00,,,0.00,meteohub,2013-03-22 14:07:00,
2013-03-22 08:12:00,15.8,14.4,23.98,NW,315,30.0,30.0,94,0.00,,,0.00,meteohub,2013-03-22 14:12:00,
2013-03-22 08:17:00,15.6,14.2,23.98,NW,315,32.0,34.0,94,0.00,,,0.00,meteohub,2013-03-22 14:17:00,
2013-03-22 08:27:00,14.9,13.5,23.98,North,0,36.0,37.0,94,0.00,,,0.00,meteohub,2013-03-22 14:27:00,
2013-03-22 08:32:00,14.7,13.3,23.97,North,0,36.0,39.0,94,0.00,,,0.00,meteohub,2013-03-22 14:32:00,
2013-03-22 08:37:00,13.6,12.0,23.98,North,0,39.0,40.0,93,0.00,,,0.00,meteohub,2013-03-22 14:37:00,
2013-03-22 08:42:00,13.6,12.0,23.99,North,0,36.0,40.0,93,0.00,,,0.00,meteohub,2013-03-22 14:42:00,
2013-03-22 08:47:00,13.6,12.0,23.98,North,0,37.0,40.0,93,0.00,,,0.00,meteohub,2013-03-22 14:47:00,
2013-03-22 08:57:00,13.5,11.8,23.99,North,0,36.0,40.0,93,0.00,,,0.00,meteohub,2013-03-22 14:57:00,
2013-03-22 09:02:00,13.1,11.5,23.99,North,0,36.0,37.0,93,0.00,,,0.00,meteohub,2013-03-22 15:02:00,
2013-03-22 09:12:00,13.1,11.5,23.99,North,0,32.0,37.0,93,0.00,,,0.00,meteohub,2013-03-22 15:12:00,
2013-03-22 09:17:00,13.1,11.5,24.00,North,0,33.0,36.0,93,0.00,,,0.00,meteohub,2013-03-22 15:17:00,
2013-03-22 09:22:00,12.9,11.3,24.00,North,0,32.0,34.0,93,0.00,,,0.00,meteohub,2013-03-22 15:22:00,
2013-03-22 09:27:00,13.1,11.5,24.00,North,0,32.0,34.0,93,0.00,,,0.00,meteohub,2013-03-22 15:27:00,
2013-03-22 09:32:00,13.1,11.5,24.00,North,0,33.0,34.0,93,0.00,,,0.00,meteohub,2013-03-22 15:32:00,
2013-03-22 09:37:00,13.5,11.8,24.00,North,0,30.0,34.0,93,0.00,,,0.00,meteohub,2013-03-22 15:37:00,
2013-03-22 09:42:00,13.3,11.5,24.00,North,0,33.0,34.0,92,0.00,,,0.00,meteohub,2013-03-22 15:42:00,
2013-03-22 09:47:00,12.7,10.9,24.00,North,0,36.0,36.0,92,0.00,,,0.00,meteohub,2013-03-22 15:47:00,
2013-03-22 09:52:00,12.6,10.8,24.01,North,0,36.0,36.0,92,0.00,,,0.00,meteohub,2013-03-22 15:52:00,
2013-03-22 09:57:00,12.6,10.8,24.00,North,0,34.0,36.0,92,0.00,,,0.00,meteohub,2013-03-22 15:57:00,
2013-03-22 10:02:00,12.6,10.8,24.01,North,0,32.0,36.0,92,0.00,,,0.00,meteohub,2013-03-22 16:02:00,
2013-03-22 10:07:00,12.6,10.8,24.01,North,0,34.0,36.0,92,0.00,,,0.00,meteohub,2013-03-22 16:07:00,
2013-03-22 10:17:00,12.6,10.8,24.01,North,0,30.0,34.0,92,0.00,,,0.00,meteohub,2013-03-22 16:17:00,
2013-03-22 10:27:00,12.6,10.8,24.01,North,0,31.0,33.0,92,0.00,,,0.00,meteohub,2013-03-22 16:27:00,
2013-03-22 10:32:00,12.7,10.9,24.02,North,0,30.0,33.0,92,0.00,,,0.00,meteohub,2013-03-22 16:32:00,
2013-03-22 10:37:00,12.7,10.6,24.02,North,0,30.0,33.0,91,0.00,,,0.00,meteohub,2013-03-22 16:37:00,
2013-03-22 10:42:00,12.2,10.0,24.02,North,0,28.0,31.0,91,0.00,,,0.00,meteohub,2013-03-22 16:42:00,
2013-03-22 10:47:00,12.2,10.0,24.03,North,0,29.0,31.0,91,0.00,,,0.00,meteohub,2013-03-22 16:47:00,
2013-03-22 10:52:00,12.6,10.4,24.03,North,0,27.0,31.0,91,0.00,,,0.00,meteohub,2013-03-22 16:52:00,
2013-03-22 10:57:00,12.6,10.4,24.03,North,0,27.0,30.0,91,0.00,,,0.00,meteohub,2013-03-22 16:57:00,
2013-03-22 11:07:00,12.7,10.6,24.04,North,0,24.0,28.0,91,0.00,,,0.00,meteohub,2013-03-22 17:07:00,
2013-03-22 11:12:00,12.6,10.2,24.04,North,0,26.0,27.0,90,0.00,,,0.00,meteohub,2013-03-22 17:12:00,
2013-03-22 11:17:00,12.7,10.4,24.04,North,0,23.0,27.0,90,0.00,,,0.00,meteohub,2013-03-22 17:17:00,
2013-03-22 11:27:00,13.1,10.9,24.04,North,0,20.0,26.0,91,0.00,,,0.00,meteohub,2013-03-22 17:27:00,
2013-03-22 11:32:00,13.5,11.1,24.04,North,0,21.0,24.0,90,0.00,,,0.00,meteohub,2013-03-22 17:32:00,
2013-03-22 11:37:00,13.5,11.1,24.05,North,0,22.0,23.0,90,0.00,,,0.00,meteohub,2013-03-22 17:37:00,
2013-03-22 11:42:00,13.3,10.9,24.05,North,0,22.0,22.0,90,0.00,,,0.00,meteohub,2013-03-22 17:42:00,
2013-03-22 11:47:00,13.6,11.3,24.05,North,0,20.0,23.0,90,0.00,,,0.00,meteohub,2013-03-22 17:47:00,
2013-03-22 11:52:00,13.6,11.3,24.05,NW,315,21.0,23.0,90,0.00,,,0.00,meteohub,2013-03-22 17:52:00,
2013-03-22 11:57:00,14.0,11.7,24.05,NW,315,23.0,23.0,90,0.00,,,0.00,meteohub,2013-03-22 17:57:00,
2013-03-22 12:07:00,13.5,10.8,24.05,North,0,27.0,27.0,89,0.00,,,0.00,meteohub,2013-03-22 18:07:00,
2013-03-22 12:12:00,13.6,10.9,24.05,WNW,293,25.0,28.0,89,0.00,,,0.00,meteohub,2013-03-22 18:12:00,
2013-03-22 12:17:00,14.0,11.3,24.05,North,0,27.0,28.0,89,0.00,,,0.00,meteohub,2013-03-22 18:17:00,
2013-03-22 12:22:00,14.0,11.3,24.05,North,0,27.0,28.0,89,0.00,,,0.00,meteohub,2013-03-22 18:22:00,
2013-03-22 12:27:00,14.0,11.3,24.05,North,0,27.0,28.0,89,0.00,,,0.00,meteohub,2013-03-22 18:27:00,
2013-03-22 12:32:00,14.0,11.3,24.06,North,0,23.0,28.0,89,0.00,,,0.00,meteohub,2013-03-22 18:32:00,
2013-03-22 12:37:00,13.8,11.1,24.06,North,0,25.0,28.0,89,0.00,,,0.00,meteohub,2013-03-22 18:37:00,
2013-03-22 12:42:00,13.1,10.2,24.05,North,0,27.0,28.0,88,0.00,,,0.00,meteohub,2013-03-22 18:42:00,
2013-03-22 12:47:00,12.6,9.9,24.06,North,0,27.0,29.0,89,0.00,,,0.00,meteohub,2013-03-22 18:47:00,
2013-03-22 12:52:00,12.9,10.6,24.06,North,0,28.0,29.0,90,0.00,,,0.00,meteohub,2013-03-22 18:52:00,
2013-03-22 12:57:00,12.9,10.2,24.06,North,0,27.0,29.0,89,0.00,,,0.00,meteohub,2013-03-22 18:57:00,
2013-03-22 13:07:00,13.6,10.9,24.06,North,0,24.0,29.0,89,0.00,,,0.00,meteohub,2013-03-22 19:07:00,
2013-03-22 13:12:00,13.8,11.1,24.06,North,0,23.0,29.0,89,0.00,,,0.00,meteohub,2013-03-22 19:12:00,
2013-03-22 13:17:00,14.0,11.3,24.06,North,0,23.0,26.0,89,0.00,,,0.00,meteohub,2013-03-22 19:17:00,
2013-03-22 13:22:00,14.0,11.1,24.07,North,0,23.0,26.0,88,0.00,,,0.00,meteohub,2013-03-22 19:22:00,
2013-03-22 13:27:00,14.2,11.3,24.07,North,0,25.0,27.0,88,0.00,,,0.00,meteohub,2013-03-22 19:27:00,
2013-03-22 13:32:00,14.2,11.3,24.07,North,0,23.0,27.0,88,0.00,,,0.00,meteohub,2013-03-22 19:32:00,
2013-03-22 13:37:00,14.7,12.0,24.07,North,0,23.0,25.0,89,0.00,,,0.00,meteohub,2013-03-22 19:37:00,
2013-03-22 13:42:00,14.5,11.7,24.07,North,0,26.0,26.0,88,0.00,,,0.00,meteohub,2013-03-22 19:42:00,
2013-03-22 13:47:00,14.7,11.8,24.07,North,0,23.0,26.0,88,0.00,,,0.00,meteohub,2013-03-22 19:47:00,
2013-03-22 13:52:00,14.7,11.5,24.08,North,0,22.0,26.0,87,0.00,,,0.00,meteohub,2013-03-22 19:52:00,
2013-03-22 13:57:00,14.7,11.8,24.08,North,0,21.0,26.0,88,0.00,,,0.00,meteohub,2013-03-22 19:57:00,
2013-03-22 14:07:00,15.3,12.4,24.08,North,0,20.0,25.0,88,0.00,,,0.00,meteohub,2013-03-22 20:07:00,
2013-03-22 14:12:00,15.1,11.8,24.08,North,0,21.0,22.0,87,0.00,,,0.00,meteohub,2013-03-22 20:12:00,
2013-03-22 14:17:00,14.9,12.0,24.08,North,0,22.0,23.0,88,0.00,,,0.00,meteohub,2013-03-22 20:17:00,
2013-03-22 14:22:00,14.9,12.0,24.08,NNW,338,22.0,23.0,88,0.00,,,0.00,meteohub,2013-03-22 20:22:00,
2013-03-22 14:27:00,14.7,11.8,24.08,NNW,338,21.0,23.0,88,0.00,,,0.00,meteohub,2013-03-22 20:27:00,
2013-03-22 14:37:00,15.6,12.7,24.08,North,0,21.0,22.0,88,0.00,,,0.00,meteohub,2013-03-22 20:37:00,
2013-03-22 14:47:00,15.6,12.7,24.08,North,0,20.0,21.0,88,0.00,,,0.00,meteohub,2013-03-22 20:47:00,
2013-03-22 14:52:00,14.5,11.3,24.08,North,0,26.0,26.0,87,0.00,,,0.00,meteohub,2013-03-22 20:52:00,
2013-03-22 14:57:00,13.5,10.6,24.08,North,0,27.0,27.0,88,0.00,,,0.00,meteohub,2013-03-22 20:57:00,
2013-03-22 15:07:00,13.3,10.6,24.08,North,0,24.0,27.0,89,0.00,,,0.00,meteohub,2013-03-22 21:07:00,
2013-03-22 15:12:00,13.5,10.8,24.08,North,0,26.0,27.0,89,0.00,,,0.00,meteohub,2013-03-22 21:12:00,
2013-03-22 15:22:00,14.0,11.3,24.08,North,0,28.0,28.0,89,0.00,,,0.00,meteohub,2013-03-22 21:22:00,
2013-03-22 15:27:00,14.4,11.7,24.08,North,0,24.0,28.0,89,0.00,,,0.00,meteohub,2013-03-22 21:27:00,
2013-03-22 15:32:00,14.5,11.8,24.08,North,0,25.0,28.0,89,0.00,,,0.00,meteohub,2013-03-22 21:32:00,
2013-03-22 15:37:00,14.5,11.7,24.09,North,0,26.0,28.0,88,0.00,,,0.00,meteohub,2013-03-22 21:37:00,
2013-03-22 15:47:00,14.4,11.5,24.09,NNE,23,23.0,26.0,88,0.00,,,0.00,meteohub,2013-03-22 21:47:00,
2013-03-22 15:52:00,14.2,11.3,24.09,North,0,24.0,26.0,88,0.00,,,0.00,meteohub,2013-03-22 21:52:00,
2013-03-22 16:02:00,14.5,11.8,24.09,North,0,23.0,26.0,89,0.00,,,0.00,meteohub,2013-03-22 22:02:00,
2013-03-22 16:07:00,14.9,12.2,24.09,North,0,23.0,26.0,89,0.00,,,0.00,meteohub,2013-03-22 22:07:00,
2013-03-22 16:12:00,14.5,11.7,24.09,North,0,21.0,26.0,88,0.00,,,0.00,meteohub,2013-03-22 22:12:00,
2013-03-22 16:17:00,14.5,11.8,24.09,North,0,22.0,24.0,89,0.00,,,0.00,meteohub,2013-03-22 22:17:00,
2013-03-22 16:22:00,14.5,11.8,24.10,North,0,24.0,24.0,89,0.00,,,0.00,meteohub,2013-03-22 22:22:00,
2013-03-22 16:32:00,14.9,12.2,24.10,North,0,21.0,24.0,89,0.00,,,0.00,meteohub,2013-03-22 22:32:00,
2013-03-22 16:37:00,14.5,11.7,24.10,North,0,22.0,24.0,88,0.00,,,0.00,meteohub,2013-03-22 22:37:00,
2013-03-22 16:47:00,14.5,11.8,24.11,North,0,19.0,23.0,89,0.00,,,0.00,meteohub,2013-03-22 22:47:00,
2013-03-22 16:52:00,14.5,11.8,24.10,North,0,20.0,23.0,89,0.00,,,0.00,meteohub,2013-03-22 22:52:00,
2013-03-22 16:57:00,14.5,12.2,24.11,North,0,21.0,23.0,90,0.00,,,0.00,meteohub,2013-03-22 22:57:00,
2013-03-22 17:07:00,14.0,11.7,24.10,North,0,22.0,23.0,90,0.00,,,0.00,meteohub,2013-03-22 23:07:00,
2013-03-22 17:12:00,13.6,11.3,24.10,North,0,20.0,25.0,90,0.00,,,0.00,meteohub,2013-03-22 23:12:00,
2013-03-22 17:17:00,13.8,11.5,24.11,North,0,21.0,25.0,90,0.00,,,0.00,meteohub,2013-03-22 23:17:00,
2013-03-22 17:22:00,14.0,11.8,24.11,North,0,18.0,25.0,91,0.00,,,0.00,meteohub,2013-03-22 23:22:00,
2013-03-22 17:27:00,14.0,11.8,24.11,North,0,19.0,21.0,91,0.00,,,0.00,meteohub,2013-03-22 23:27:00,
2013-03-22 17:32:00,14.0,11.8,24.11,North,0,22.0,22.0,91,0.00,,,0.00,meteohub,2013-03-22 23:32:00,
2013-03-22 17:37:00,14.0,11.8,24.12,North,0,18.0,22.0,91,0.00,,,0.00,meteohub,2013-03-22 23:37:00,
2013-03-22 17:42:00,14.2,12.0,24.12,North,0,17.0,22.0,91,0.00,,,0.00,meteohub,2013-03-22 23:42:00,
2013-03-22 17:47:00,14.2,12.0,24.12,North,0,19.0,22.0,91,0.00,,,0.00,meteohub,2013-03-22 23:47:00,
2013-03-22 17:52:00,14.4,12.2,24.12,North,0,20.0,20.0,91,0.00,,,0.00,meteohub,2013-03-22 23:52:00,
2013-03-22 17:57:00,14.5,12.4,24.12,North,0,23.0,23.0,91,0.00,,,0.00,meteohub,2013-03-22 23:57:00,
2013-03-22 18:02:00,14.4,12.2,24.12,North,0,22.0,24.0,91,0.00,,,0.00,meteohub,2013-03-23 00:02:00,
2013-03-22 18:07:00,14.2,12.0,24.12,North,0,21.0,24.0,91,0.00,,,0.00,meteohub,2013-03-23 00:07:00,
2013-03-22 18:12:00,14.2,12.0,24.12,North,0,22.0,24.0,91,0.00,,,0.00,meteohub,2013-03-23 00:12:00,
2013-03-22 18:17:00,14.2,12.0,24.12,North,0,23.0,23.0,91,0.00,,,0.00,meteohub,2013-03-23 00:17:00,
2013-03-22 18:27:00,14.2,12.2,24.12,North,0,21.0,23.0,92,0.00,,,0.00,meteohub,2013-03-23 00:27:00,
2013-03-22 18:32:00,14.0,12.0,24.12,North,0,21.0,23.0,92,0.00,,,0.00,meteohub,2013-03-23 00:32:00,
2013-03-22 18:37:00,14.0,12.0,24.12,North,0,18.0,21.0,92,0.00,,,0.00,meteohub,2013-03-23 00:37:00,
2013-03-22 18:42:00,14.0,12.0,24.12,North,0,20.0,21.0,92,0.00,,,0.00,meteohub,2013-03-23 00:42:00,
2013-03-22 18:52:00,13.6,11.8,24.13,North,0,17.0,21.0,92,0.00,,,0.00,meteohub,2013-03-23 00:52:00,
2013-03-22 18:57:00,13.5,11.7,24.13,North,0,20.0,21.0,92,0.00,,,0.00,meteohub,2013-03-23 00:57:00,
2013-03-22 19:02:00,13.5,11.7,24.13,North,0,17.0,20.0,92,0.00,,,0.00,meteohub,2013-03-23 01:02:00,
2013-03-22 19:12:00,13.6,11.8,24.13,North,0,21.0,21.0,92,0.00,,,0.00,meteohub,2013-03-23 01:12:00,
2013-03-22 19:17:00,13.5,11.7,24.13,North,0,24.0,24.0,92,0.00,,,0.00,meteohub,2013-03-23 01:17:00,
2013-03-22 19:22:00,13.5,11.7,24.14,North,0,23.0,24.0,92,0.00,,,0.00,meteohub,2013-03-23 01:22:00,
2013-03-22 19:27:00,13.1,11.3,24.14,North,0,24.0,26.0,92,0.00,,,0.00,meteohub,2013-03-23 01:27:00,
2013-03-22 19:32:00,12.7,10.9,24.14,North,0,23.0,26.0,92,0.00,,,0.00,meteohub,2013-03-23 01:32:00,
2013-03-22 19:37:00,12.6,10.8,24.14,North,0,21.0,26.0,92,0.00,,,0.00,meteohub,2013-03-23 01:37:00,
2013-03-22 19:42:00,12.4,10.6,24.14,North,0,21.0,24.0,92,0.00,,,0.00,meteohub,2013-03-23 01:42:00,
2013-03-22 19:47:00,12.4,10.6,24.14,North,0,17.0,24.0,92,0.00,,,0.00,meteohub,2013-03-23 01:47:00,
2013-03-22 19:52:00,12.6,10.8,24.14,North,0,19.0,22.0,92,0.00,,,0.00,meteohub,2013-03-23 01:52:00,
2013-03-22 19:57:00,12.6,10.8,24.14,North,0,17.0,22.0,92,0.00,,,0.00,meteohub,2013-03-23 01:57:00,
2013-03-22 20:02:00,12.6,10.8,24.15,North,0,20.0,21.0,92,0.00,,,0.00,meteohub,2013-03-23 02:02:00,
2013-03-22 20:07:00,12.6,10.8,24.15,North,0,19.0,21.0,92,0.00,,,0.00,meteohub,2013-03-23 02:07:00,
2013-03-22 20:12:00,12.6,10.8,24.15,North,0,18.0,20.0,92,0.00,,,0.00,meteohub,2013-03-23 02:12:00,
2013-03-22 20:17:00,12.2,10.4,24.15,North,0,20.0,21.0,92,0.00,,,0.00,meteohub,2013-03-23 02:17:00,
2013-03-22 20:22:00,11.8,10.0,24.15,North,0,19.0,21.0,92,0.00,,,0.00,meteohub,2013-03-23 02:22:00,
2013-03-22 20:32:00,11.7,9.9,24.15,North,0,19.0,21.0,92,0.00,,,0.00,meteohub,2013-03-23 02:32:00,
2013-03-22 20:37:00,11.7,9.9,24.15,North,0,20.0,20.0,92,0.00,,,0.00,meteohub,2013-03-23 02:37:00,
2013-03-22 20:47:00,11.7,9.9,24.16,North,0,21.0,21.0,92,0.00,,,0.00,meteohub,2013-03-23 02:47:00,
2013-03-22 20:52:00,11.3,9.5,24.16,North,0,22.0,22.0,92,0.00,,,0.00,meteohub,2013-03-23 02:52:00,
2013-03-22 20:57:00,11.1,9.3,24.17,North,0,20.0,23.0,92,0.00,,,0.00,meteohub,2013-03-23 02:57:00,
2013-03-22 21:07:00,10.8,8.6,24.17,North,0,21.0,22.0,91,0.00,,,0.00,meteohub,2013-03-23 03:07:00,
2013-03-22 21:12:00,10.6,8.4,24.17,North,0,20.0,21.0,91,0.00,,,0.00,meteohub,2013-03-23 03:12:00,
2013-03-22 21:17:00,10.4,8.2,24.17,North,0,19.0,21.0,91,0.00,,,0.00,meteohub,2013-03-23 03:17:00,
2013-03-22 21:22:00,10.2,8.1,24.17,North,0,17.0,21.0,91,0.00,,,0.00,meteohub,2013-03-23 03:22:00,
2013-03-22 21:27:00,10.0,7.9,24.17,North,0,18.0,20.0,91,0.00,,,0.00,meteohub,2013-03-23 03:27:00,
2013-03-22 21:37:00,9.7,7.5,24.17,North,0,19.0,20.0,91,0.00,,,0.00,meteohub,2013-03-23 03:37:00,
2013-03-22 21:42:00,9.5,7.3,24.17,North,0,21.0,21.0,91,0.00,,,0.00,meteohub,2013-03-23 03:42:00,
2013-03-22 21:52:00,9.3,7.2,24.17,North,0,21.0,21.0,91,0.00,,,0.00,meteohub,2013-03-23 03:52:00,
2013-03-22 22:02:00,9.1,7.0,24.17,North,0,20.0,21.0,91,0.00,,,0.00,meteohub,2013-03-23 04:02:00,
2013-03-22 22:07:00,9.0,6.8,24.18,North,0,19.0,21.0,91,0.00,,,0.00,meteohub,2013-03-23 04:07:00,
2013-03-22 22:12:00,8.8,6.6,24.18,North,0,18.0,20.0,91,0.00,,,0.00,meteohub,2013-03-23 04:12:00,
2013-03-22 22:17:00,8.8,6.6,24.18,North,0,19.0,20.0,91,0.00,,,0.00,meteohub,2013-03-23 04:17:00,
2013-03-22 22:22:00,8.6,6.4,24.18,North,0,20.0,20.0,91,0.00,,,0.00,meteohub,2013-03-23 04:22:00,
2013-03-22 22:27:00,8.6,6.4,24.18,North,0,19.0,20.0,91,0.00,,,0.00,meteohub,2013-03-23 04:27:00,
2013-03-22 22:37:00,8.4,6.3,24.18,North,0,17.0,20.0,91,0.00,,,0.00,meteohub,2013-03-23 04:37:00,
2013-03-22 22:42:00,8.2,6.1,24.18,North,0,19.0,20.0,91,0.00,,,0.00,meteohub,2013-03-23 04:42:00,
2013-03-22 22:47:00,8.2,6.1,24.19,North,0,19.0,20.0,91,0.00,,,0.00,meteohub,2013-03-23 04:47:00,
2013-03-22 22:52:00,8.2,6.1,24.18,North,0,20.0,20.0,91,0.00,,,0.00,meteohub,2013-03-23 04:52:00,
2013-03-22 23:02:00,8.2,6.1,24.19,North,0,21.0,21.0,91,0.00,,,0.00,meteohub,2013-03-23 05:02:00,
2013-03-22 23:07:00,8.1,5.7,24.19,North,0,18.0,21.0,90,0.00,,,0.00,meteohub,2013-03-23 05:07:00,
2013-03-22 23:17:00,7.3,5.0,24.19,North,0,17.0,21.0,90,0.00,,,0.00,meteohub,2013-03-23 05:17:00,
2013-03-22 23:22:00,7.2,4.8,24.19,North,0,16.0,21.0,90,0.00,,,0.00,meteohub,2013-03-23 05:22:00,
2013-03-22 23:27:00,7.0,4.6,24.19,North,0,15.0,17.0,90,0.00,,,0.00,meteohub,2013-03-23 05:27:00,
2013-03-22 23:32:00,6.8,4.5,24.19,North,0,14.0,17.0,90,0.00,,,0.00,meteohub,2013-03-23 05:32:00,
2013-03-22 23:37:00,6.6,4.3,24.19,North,0,15.0,17.0,90,0.00,,,0.00,meteohub,2013-03-23 05:37:00,
2013-03-22 23:47:00,6.4,4.1,24.19,North,0,15.0,15.0,90,0.00,,,0.00,meteohub,2013-03-23 05:47:00,
2013-03-22 23:52:00,6.4,4.1,24.19,North,0,15.0,15.0,90,0.00,,,0.00,meteohub,2013-03-23 05:52:00,